createdAt,value
2023-02-14T00:02:26.664Z,10.27
2023-02-14T00:04:57.875Z,13.20
2023-02-14T00:07:27.259Z,13.60
2023-02-14T00:10:10.283Z,11.95
2023-02-14T00:12:39.841Z,11.52
2023-02-14T00:15:27.906Z,11.95
2023-02-14T00:17:57.306Z,12.07
2023-02-14T00:20:24.723Z,13.55
2023-02-14T00:23:00.860Z,12.95
2023-02-14T00:25:30.554Z,11.40
2023-02-14T00:28:00.725Z,13.27
2023-02-14T00:30:29.582Z,14.18
2023-02-14T00:32:56.779Z,13.38
2023-02-14T00:35:24.188Z,13.13
2023-02-14T00:37:57.001Z,13.80
2023-02-14T00:42:57.354Z,13.93
2023-02-14T00:45:34.348Z,13.07
2023-02-14T00:48:07.415Z,13.63
2023-02-14T00:50:36.610Z,13.63
2023-02-14T00:53:03.788Z,13.73
2023-02-14T00:55:33.160Z,13.38
2023-02-14T00:58:06.467Z,15.07
2023-02-14T01:00:35.494Z,13.38
2023-02-14T01:03:04.162Z,12.82
2023-02-14T01:05:42.722Z,13.95
2023-02-14T01:08:09.891Z,14.40
2023-02-14T01:10:45.055Z,13.80
2023-02-14T01:13:12.712Z,14.00
2023-02-14T01:15:40.706Z,15.65
2023-02-14T01:18:08.040Z,14.20
2023-02-14T01:20:35.592Z,13.90
2023-02-14T01:23:07.242Z,14.45
2023-02-14T01:25:34.750Z,14.40
2023-02-14T01:28:04.668Z,15.35
2023-02-14T01:30:34.557Z,14.68
2023-02-14T01:33:14.451Z,14.73
2023-02-14T01:35:45.114Z,15.55
2023-02-14T01:38:12.230Z,13.85
2023-02-14T01:40:52.025Z,14.38
2023-02-14T01:43:25.121Z,15.35
2023-02-14T01:46:03.156Z,14.23
2023-02-14T01:48:30.309Z,16.25
2023-02-14T01:50:59.293Z,14.75
2023-02-14T01:53:28.423Z,14.25
2023-02-14T01:56:09.656Z,14.27
2023-02-14T01:58:48.839Z,15.48
2023-02-14T02:01:24.457Z,15.25
2023-02-14T02:04:00.424Z,14.88
2023-02-14T02:06:35.607Z,14.60
2023-02-14T02:09:10.178Z,14.13
2023-02-14T02:11:38.181Z,15.10
2023-02-14T02:14:13.616Z,13.95
2023-02-14T02:17:02.534Z,14.85
2023-02-14T02:19:48.075Z,14.35
2023-02-14T02:22:17.548Z,13.88
2023-02-14T02:25:00.948Z,13.80
2023-02-14T02:27:41.545Z,14.30
2023-02-14T02:30:22.734Z,13.20
2023-02-14T02:33:16.422Z,15.68
2023-02-14T02:35:52.390Z,14.18
2023-02-14T02:38:38.666Z,14.60
2023-02-14T02:41:19.725Z,14.15
2023-02-14T02:44:02.305Z,14.73
2023-02-14T02:46:57.436Z,15.27
2023-02-14T02:50:05.596Z,14.65
2023-02-14T02:52:59.411Z,15.27
2023-02-14T02:56:02.720Z,14.88
2023-02-14T02:58:37.504Z,15.77
2023-02-14T03:01:13.139Z,13.82
2023-02-14T03:04:02.973Z,15.02
2023-02-14T03:06:31.323Z,16.02
2023-02-14T03:09:12.542Z,17.13
2023-02-14T03:11:43.565Z,15.63
2023-02-14T03:14:25.324Z,15.63
2023-02-14T03:17:00.204Z,16.23
2023-02-14T03:19:51.043Z,19.10
2023-02-14T03:24:49.746Z,16.33
2023-02-14T03:27:29.900Z,16.05
2023-02-14T03:30:13.030Z,15.98
2023-02-14T03:32:51.933Z,17.83
2023-02-14T03:35:28.136Z,17.42
2023-02-14T03:38:06.711Z,18.95
2023-02-14T03:40:41.889Z,18.33
2023-02-14T03:43:17.844Z,18.23
2023-02-14T03:45:49.049Z,19.00
2023-02-14T03:48:21.736Z,17.02
2023-02-14T03:50:56.224Z,19.30
2023-02-14T03:53:27.722Z,18.63
2023-02-14T03:56:14.012Z,18.42
2023-02-14T03:58:50.268Z,18.98
2023-02-14T04:01:21.735Z,17.25
2023-02-14T04:03:52.203Z,17.42
2023-02-14T04:06:20.221Z,19.17
2023-02-14T04:08:48.873Z,18.27
2023-02-14T04:13:46.929Z,18.13
2023-02-14T04:16:14.395Z,18.40
2023-02-14T04:19:03.166Z,19.25
2023-02-14T04:21:33.161Z,18.35
2023-02-14T04:24:05.633Z,20.92
2023-02-14T04:26:32.813Z,20.95
2023-02-14T04:29:01.353Z,18.45
2023-02-14T04:31:33.807Z,19.17
2023-02-14T04:34:03.495Z,19.30
2023-02-14T04:36:40.874Z,18.75
2023-02-14T04:39:55.954Z,21.08
2023-02-14T04:42:24.640Z,20.20
2023-02-14T04:44:57.469Z,21.05
2023-02-14T04:47:24.613Z,23.83
2023-02-14T04:49:52.021Z,22.67
2023-02-14T04:52:23.909Z,23.63
2023-02-14T04:54:59.918Z,23.95
2023-02-14T04:57:35.006Z,24.02
2023-02-14T05:00:04.520Z,23.98
2023-02-14T05:02:32.041Z,21.73
2023-02-14T05:04:59.803Z,23.15
2023-02-14T05:07:29.523Z,22.10
2023-02-14T05:10:03.210Z,24.05
2023-02-14T05:12:32.920Z,21.75
2023-02-14T05:15:07.299Z,22.63
2023-02-14T05:17:39.540Z,22.30
2023-02-14T05:20:09.859Z,21.00
2023-02-14T05:22:44.665Z,23.90
2023-02-14T05:25:17.901Z,21.63
2023-02-14T05:27:47.349Z,21.65
2023-02-14T05:30:36.551Z,22.80
2023-02-14T05:33:05.096Z,26.08
2023-02-14T05:35:46.827Z,23.48
2023-02-14T05:38:24.154Z,24.88
2023-02-14T05:40:57.082Z,22.45
2023-02-14T05:43:24.410Z,23.17
2023-02-14T05:45:54.949Z,23.27
2023-02-14T05:48:37.594Z,21.80
2023-02-14T05:51:07.524Z,22.65
2023-02-14T05:53:35.135Z,24.65
2023-02-14T05:56:07.802Z,25.50
2023-02-14T05:58:39.857Z,24.10
2023-02-14T06:01:12.985Z,22.98
2023-02-14T06:03:42.848Z,24.52
2023-02-14T06:06:10.018Z,22.63
2023-02-14T06:08:51.603Z,20.90
2023-02-14T06:11:18.607Z,24.88
2023-02-14T06:13:45.793Z,21.92
2023-02-14T06:16:12.842Z,22.60
2023-02-14T06:18:39.957Z,24.77
2023-02-14T06:21:07.398Z,24.33
2023-02-14T06:23:40.179Z,24.75
2023-02-14T06:26:07.381Z,21.20
2023-02-14T06:28:34.520Z,19.10
2023-02-14T06:31:07.263Z,25.20
2023-02-14T06:33:34.421Z,22.77
2023-02-14T06:36:01.393Z,22.50
2023-02-14T06:38:31.065Z,24.83
2023-02-14T06:41:17.282Z,22.48
2023-02-14T06:43:53.176Z,24.98
2023-02-14T06:46:21.269Z,23.05
2023-02-14T06:48:50.906Z,23.65
2023-02-14T06:51:24.182Z,22.10
2023-02-14T06:54:03.699Z,23.15
2023-02-14T06:57:00.260Z,23.52
2023-02-14T06:59:29.451Z,24.23
2023-02-14T07:02:06.791Z,21.95
2023-02-14T07:05:10.788Z,23.90
2023-02-14T07:07:57.037Z,23.38
2023-02-14T07:10:24.830Z,22.30
2023-02-14T07:12:53.158Z,23.67
2023-02-14T07:15:22.867Z,22.58
2023-02-14T07:18:27.241Z,23.05
2023-02-14T07:21:00.768Z,22.30
2023-02-14T07:23:38.049Z,23.85
2023-02-14T07:26:12.323Z,22.90
2023-02-14T07:29:05.384Z,27.55
2023-02-14T07:31:34.138Z,24.45
2023-02-14T07:34:09.710Z,24.60
2023-02-14T07:42:12.599Z,21.77
2023-02-14T07:45:20.416Z,14.73
2023-02-14T07:47:42.952Z,23.75
2023-02-14T07:50:17.108Z,24.20
2023-02-14T07:52:54.056Z,23.92
2023-02-14T07:55:21.424Z,26.02
2023-02-14T07:58:03.106Z,25.73
2023-02-14T08:00:31.374Z,19.15
2023-02-14T08:03:04.033Z,22.88
2023-02-14T08:05:31.209Z,25.70
2023-02-14T08:07:58.371Z,22.90
2023-02-14T08:10:25.476Z,18.85
2023-02-14T08:12:58.775Z,22.98
2023-02-14T08:15:51.076Z,23.73
2023-02-14T08:18:18.943Z,24.85
2023-02-14T08:20:48.586Z,24.67
2023-02-14T08:23:16.089Z,17.80
2023-02-14T08:25:43.217Z,20.40
2023-02-14T08:28:10.463Z,20.92
2023-02-14T08:30:38.157Z,17.73
2023-02-14T08:33:06.133Z,14.90
2023-02-14T08:35:33.352Z,21.88
2023-02-14T08:38:00.575Z,17.85
2023-02-14T08:40:27.852Z,21.52
2023-02-14T08:42:55.077Z,21.48
2023-02-14T08:45:22.155Z,21.23
2023-02-14T08:47:49.325Z,16.08
2023-02-14T08:50:17.128Z,19.15
2023-02-14T08:52:44.499Z,17.10
2023-02-14T08:55:14.899Z,20.83
2023-02-14T08:57:42.131Z,20.17
2023-02-14T09:00:09.861Z,20.95
2023-02-14T09:02:37.233Z,18.95
2023-02-14T09:05:04.737Z,16.25
2023-02-14T09:07:31.974Z,17.33
2023-02-14T09:09:59.050Z,18.45
2023-02-14T09:12:26.261Z,18.05
2023-02-14T09:14:53.491Z,13.65
2023-02-14T09:17:21.059Z,20.55
2023-02-14T09:19:48.186Z,19.38
2023-02-14T09:22:15.250Z,14.40
2023-02-14T09:24:42.398Z,20.35
2023-02-14T09:27:09.601Z,18.42
2023-02-14T09:29:36.791Z,16.80
2023-02-14T09:32:05.083Z,10.38
2023-02-14T09:34:53.185Z,16.45
2023-02-14T09:37:20.344Z,19.17
2023-02-14T09:39:47.568Z,15.10
2023-02-14T09:44:48.510Z,14.73
2023-02-14T09:47:21.589Z,18.50
2023-02-14T09:49:49.942Z,15.57
2023-02-14T09:52:18.898Z,11.05
2023-02-14T09:54:49.697Z,12.80
2023-02-14T09:57:17.145Z,15.88
2023-02-14T09:59:48.125Z,17.25
2023-02-14T10:02:24.352Z,13.60
2023-02-14T10:05:06.401Z,16.05
2023-02-14T10:07:36.277Z,17.05
2023-02-14T10:10:08.596Z,16.42
2023-02-14T10:12:38.047Z,13.65
2023-02-14T10:15:22.585Z,15.30
2023-02-14T10:18:22.327Z,16.80
2023-02-14T10:20:53.373Z,13.90
2023-02-14T10:23:34.451Z,15.85
2023-02-14T10:26:03.246Z,14.98
2023-02-14T10:28:35.241Z,18.35
2023-02-14T10:31:05.365Z,14.95
2023-02-14T10:33:34.417Z,16.88
2023-02-14T10:36:04.943Z,15.57
2023-02-14T10:38:40.810Z,18.52
2023-02-14T10:41:10.917Z,12.13
2023-02-14T10:43:42.585Z,17.35
2023-02-14T10:46:09.754Z,18.65
2023-02-14T10:48:57.300Z,15.95
2023-02-14T10:51:44.805Z,17.90
2023-02-14T10:54:20.939Z,16.98
2023-02-14T10:56:48.077Z,14.57
2023-02-14T10:59:34.150Z,17.02
2023-02-14T11:02:02.042Z,12.02
2023-02-14T11:04:31.400Z,17.23
2023-02-14T11:06:58.845Z,16.25
2023-02-14T11:09:25.835Z,18.02
2023-02-14T11:11:57.646Z,15.35
2023-02-14T11:14:30.216Z,15.90
2023-02-14T11:16:58.783Z,14.60
2023-02-14T11:19:30.230Z,16.38
2023-02-14T11:21:59.230Z,17.48
2023-02-14T11:24:33.956Z,16.27
2023-02-14T11:27:01.037Z,16.25
2023-02-14T11:29:30.263Z,16.63
2023-02-14T11:31:58.114Z,14.80
2023-02-14T11:34:40.180Z,17.17
2023-02-14T11:37:19.930Z,15.02
2023-02-14T11:39:47.049Z,13.23
2023-02-14T11:42:14.387Z,15.35
2023-02-14T11:44:54.412Z,15.43
2023-02-14T11:47:29.414Z,15.82
2023-02-14T11:50:06.080Z,15.27
2023-02-14T11:52:34.069Z,14.95
2023-02-14T11:55:01.585Z,15.57
2023-02-14T11:57:36.200Z,12.60
2023-02-14T12:00:04.991Z,13.48
2023-02-14T12:02:43.607Z,16.17
2023-02-14T12:05:28.910Z,13.93
2023-02-14T12:07:57.794Z,14.70
2023-02-14T12:10:29.714Z,11.90
2023-02-14T12:12:59.099Z,17.65
2023-02-14T12:15:35.325Z,10.48
2023-02-14T12:18:18.478Z,15.57
2023-02-14T12:20:57.325Z,14.43
2023-02-14T12:23:27.598Z,16.13
2023-02-14T12:26:01.773Z,16.10
2023-02-14T12:28:38.493Z,16.92
2023-02-14T12:31:12.615Z,15.40
2023-02-14T12:33:40.482Z,15.63
2023-02-14T12:36:10.982Z,14.77
2023-02-14T12:39:12.832Z,14.60
2023-02-14T12:41:45.141Z,11.95
2023-02-14T12:44:21.494Z,11.23
2023-02-14T12:47:01.127Z,13.85
2023-02-14T12:49:28.291Z,14.30
2023-02-14T12:52:04.038Z,15.43
2023-02-14T12:54:50.375Z,16.33
2023-02-14T12:57:17.437Z,14.05
2023-02-14T12:59:50.617Z,13.73
2023-02-14T13:02:27.058Z,12.45
2023-02-14T13:05:06.286Z,14.63
2023-02-14T13:07:39.466Z,13.75
2023-02-14T13:10:21.957Z,13.88
2023-02-14T13:12:58.456Z,13.77
2023-02-14T13:15:33.363Z,14.43
2023-02-14T13:18:04.257Z,13.02
2023-02-14T13:20:43.482Z,13.63
2023-02-14T13:23:19.449Z,11.00
2023-02-14T13:25:50.085Z,13.57
2023-02-14T13:28:17.918Z,13.02
2023-02-14T13:30:45.035Z,13.90
2023-02-14T13:33:30.133Z,12.10
2023-02-14T13:36:00.742Z,13.13
2023-02-14T13:38:28.571Z,11.73
2023-02-14T13:40:56.773Z,13.63
2023-02-14T13:43:42.555Z,12.10
2023-02-14T13:46:09.641Z,12.27
2023-02-14T13:48:39.305Z,12.82
2023-02-14T13:51:10.537Z,12.88
2023-02-14T13:53:43.676Z,12.48
2023-02-14T13:56:15.195Z,11.25
2023-02-14T13:58:52.568Z,12.25
2023-02-14T14:01:31.830Z,11.48
2023-02-14T14:04:00.474Z,13.65
2023-02-14T14:06:27.895Z,11.32
2023-02-14T14:08:57.060Z,11.77
2023-02-14T14:11:24.193Z,11.73
2023-02-14T14:13:52.797Z,11.65
2023-02-14T14:16:21.382Z,11.98
2023-02-14T14:19:09.756Z,12.45
2023-02-14T14:21:58.859Z,12.25
2023-02-14T14:24:28.484Z,11.45
2023-02-14T14:27:01.786Z,10.80
2023-02-14T14:29:31.891Z,11.95
2023-02-14T14:32:13.419Z,11.50
2023-02-14T14:34:55.172Z,11.80
2023-02-14T14:37:23.781Z,12.23
2023-02-14T14:40:00.271Z,11.07
2023-02-14T14:42:32.499Z,12.13
2023-02-14T14:45:22.815Z,11.05
2023-02-14T14:47:54.796Z,11.55
2023-02-14T14:50:29.509Z,11.43
2023-02-14T14:52:59.203Z,11.18
2023-02-14T14:57:58.333Z,11.57
2023-02-14T15:00:27.334Z,11.32
2023-02-14T15:03:01.716Z,11.52
2023-02-14T15:05:35.654Z,11.95
2023-02-14T15:08:20.346Z,10.65
2023-02-14T15:11:17.030Z,11.73
2023-02-14T15:13:51.351Z,11.93
2023-02-14T15:16:42.184Z,11.45
2023-02-14T15:19:13.847Z,10.13
2023-02-14T15:21:49.416Z,9.63
2023-02-14T15:24:19.425Z,10.43
2023-02-14T15:26:53.594Z,11.18
2023-02-14T15:29:30.980Z,12.00
2023-02-14T15:32:05.021Z,11.48
2023-02-14T15:34:38.294Z,11.70
2023-02-14T15:37:09.825Z,11.13
2023-02-14T15:39:42.212Z,11.38
2023-02-14T15:42:34.140Z,11.70
2023-02-14T15:45:21.249Z,11.77
2023-02-14T15:47:50.080Z,11.02
2023-02-14T15:50:20.699Z,11.93
2023-02-14T15:52:56.430Z,12.52
2023-02-14T15:55:36.942Z,12.70
2023-02-14T16:00:35.192Z,11.20
2023-02-14T16:03:14.030Z,12.38
2023-02-14T16:06:03.507Z,12.50
2023-02-14T16:08:33.327Z,11.30
2023-02-14T16:11:22.558Z,11.15
2023-02-14T16:13:49.710Z,12.18
2023-02-14T16:16:17.051Z,11.80
2023-02-14T16:18:55.237Z,13.35
2023-02-14T16:21:34.940Z,13.95
2023-02-14T16:24:08.336Z,14.53
2023-02-14T16:26:48.229Z,12.80
2023-02-14T16:29:22.682Z,13.93
2023-02-14T16:32:14.810Z,14.65
2023-02-14T16:34:46.660Z,14.75
2023-02-14T16:37:22.191Z,14.00
2023-02-14T16:39:51.801Z,13.05
2023-02-14T16:42:20.093Z,13.65
2023-02-14T16:44:59.841Z,14.55
2023-02-14T16:47:27.925Z,15.53
2023-02-14T16:49:57.249Z,15.30
2023-02-14T16:52:34.040Z,15.00
2023-02-14T16:55:10.395Z,14.57
2023-02-14T16:57:40.608Z,14.38
2023-02-14T17:03:07.011Z,13.85
2023-02-14T17:05:43.591Z,13.30
2023-02-14T17:08:16.122Z,13.88
2023-02-14T17:10:46.549Z,14.35
2023-02-14T17:13:13.856Z,15.95
2023-02-14T17:15:46.618Z,16.00
2023-02-14T17:18:26.650Z,14.60
2023-02-14T17:21:02.492Z,15.95
2023-02-14T17:23:32.502Z,15.02
2023-02-14T17:26:04.597Z,17.92
2023-02-14T17:28:32.787Z,15.98
2023-02-14T17:31:04.807Z,16.70
2023-02-14T17:33:41.676Z,16.52
2023-02-14T17:36:12.880Z,16.98
2023-02-14T17:38:46.197Z,12.00
2023-02-14T17:41:21.553Z,13.50
2023-02-14T17:43:58.378Z,18.27
2023-02-14T17:46:32.364Z,14.85
2023-02-14T17:49:09.710Z,13.30
2023-02-14T17:51:36.813Z,14.63
2023-02-14T17:54:04.177Z,12.57
2023-02-14T17:56:33.693Z,17.83
2023-02-14T17:59:00.955Z,18.42
2023-02-14T18:01:36.363Z,13.43
2023-02-14T18:04:08.686Z,16.73
2023-02-14T18:06:59.677Z,15.82
2023-02-14T18:09:31.448Z,17.95
2023-02-14T18:12:00.716Z,14.65
2023-02-14T18:14:30.568Z,17.48
2023-02-14T18:17:03.516Z,14.75
2023-02-14T18:19:30.768Z,20.55
2023-02-14T18:22:00.698Z,19.27
2023-02-14T18:24:32.080Z,16.13
2023-02-14T18:26:59.280Z,18.10
2023-02-14T18:29:26.528Z,17.17
2023-02-14T18:31:59.698Z,17.65
2023-02-14T18:34:27.014Z,17.15
2023-02-14T18:36:58.217Z,17.73
2023-02-14T18:39:39.871Z,14.27
2023-02-14T18:42:12.187Z,18.23
2023-02-14T18:44:41.618Z,16.63
2023-02-14T18:47:15.260Z,19.95
2023-02-14T18:49:51.564Z,19.35
2023-02-14T18:52:27.727Z,20.23
2023-02-14T18:54:59.256Z,17.83
2023-02-14T18:57:36.748Z,21.85
2023-02-14T19:00:09.833Z,16.00
2023-02-14T19:10:53.274Z,14.88
2023-02-14T19:13:27.350Z,15.98
2023-02-14T19:16:04.279Z,18.60
2023-02-14T19:18:34.527Z,14.63
2023-02-14T19:21:17.703Z,12.52
2023-02-14T19:23:45.121Z,21.08
2023-02-14T19:26:14.116Z,18.92
2023-02-14T19:28:44.567Z,18.55
2023-02-14T19:31:11.852Z,19.08
2023-02-14T19:33:41.746Z,15.35
2023-02-14T19:36:15.211Z,20.95
2023-02-14T19:38:45.638Z,23.40
2023-02-14T19:41:37.289Z,19.88
2023-02-14T19:44:16.334Z,20.25
2023-02-14T19:46:46.103Z,21.35
2023-02-14T19:49:21.434Z,19.67
2023-02-14T19:51:54.606Z,21.60
2023-02-14T19:54:31.195Z,22.80
2023-02-14T19:57:06.268Z,16.00
2023-02-14T19:59:43.135Z,20.90
2023-02-14T20:02:19.650Z,17.58
2023-02-14T20:04:46.931Z,21.92
2023-02-14T20:07:14.240Z,21.73
2023-02-14T20:09:57.528Z,18.58
2023-02-14T20:12:40.669Z,17.20
2023-02-14T20:15:11.152Z,22.05
2023-02-14T20:17:44.845Z,17.00
2023-02-14T20:20:18.880Z,23.02
2023-02-14T20:22:49.285Z,22.08
2023-02-14T20:25:26.318Z,13.80
2023-02-14T20:27:54.678Z,17.02
2023-02-14T20:30:24.769Z,14.45
2023-02-14T20:32:58.024Z,23.30
2023-02-14T20:35:25.145Z,23.05
2023-02-14T20:37:57.601Z,23.38
2023-02-14T20:40:28.578Z,23.05
2023-02-14T20:43:06.226Z,24.92
2023-02-14T20:48:19.570Z,23.77
2023-02-14T20:50:52.724Z,22.67
2023-02-14T20:53:31.441Z,24.17
2023-02-14T20:56:01.039Z,25.35
2023-02-14T20:58:30.599Z,17.42
2023-02-14T21:01:16.925Z,24.77
2023-02-14T21:03:49.034Z,22.85
2023-02-14T21:06:28.701Z,23.38
2023-02-14T21:08:58.475Z,24.73
2023-02-14T21:11:28.925Z,20.73
2023-02-14T21:14:11.259Z,25.35
2023-02-14T21:16:45.302Z,27.98
2023-02-14T21:22:00.031Z,22.35
2023-02-14T21:27:11.325Z,26.05
2023-02-14T21:29:52.544Z,23.00
2023-02-14T21:32:22.516Z,21.05
2023-02-14T21:34:57.791Z,24.10
2023-02-14T21:37:33.909Z,26.15
2023-02-14T21:40:11.476Z,21.75
2023-02-14T21:42:45.331Z,25.88
2023-02-14T21:45:33.192Z,22.35
2023-02-14T21:48:21.259Z,26.85
2023-02-14T21:50:48.462Z,26.33
2023-02-14T21:53:18.378Z,27.13
2023-02-14T21:55:59.430Z,28.33
2023-02-14T21:58:29.165Z,27.50
2023-02-14T22:00:58.832Z,29.30
2023-02-14T22:03:34.886Z,16.60
2023-02-14T22:06:06.085Z,25.77
2023-02-14T22:08:39.525Z,26.65
2023-02-14T22:11:10.928Z,28.13
2023-02-14T22:16:46.186Z,26.25
2023-02-14T22:19:21.730Z,29.00
2023-02-14T22:22:19.335Z,28.02
2023-02-14T22:24:53.587Z,23.83
2023-02-14T22:27:30.398Z,23.98
2023-02-14T22:32:44.554Z,21.08
2023-02-14T22:35:24.840Z,26.58
2023-02-14T22:38:00.715Z,26.08
2023-02-14T22:40:35.561Z,25.05
2023-02-14T22:43:11.509Z,28.33
2023-02-14T22:45:38.640Z,27.65
2023-02-14T22:48:10.645Z,28.52
2023-02-14T22:50:37.868Z,24.00
2023-02-14T22:53:16.533Z,27.08
2023-02-14T22:55:46.923Z,26.15
2023-02-14T22:58:24.141Z,27.83
2023-02-14T23:00:54.188Z,28.00
2023-02-14T23:03:21.936Z,23.02
2023-02-14T23:06:12.806Z,21.23
2023-02-14T23:11:18.051Z,26.33
2023-02-14T23:14:09.838Z,23.67
2023-02-14T23:16:56.080Z,28.15
2023-02-14T23:19:43.567Z,26.73
2023-02-14T23:22:26.386Z,26.85
2023-02-14T23:25:06.249Z,30.38
2023-02-14T23:27:54.772Z,25.53
2023-02-14T23:30:22.412Z,29.20
2023-02-14T23:32:57.256Z,26.17
2023-02-14T23:35:32.459Z,27.15
2023-02-14T23:38:01.654Z,28.13
2023-02-14T23:40:29.841Z,27.13
2023-02-14T23:42:59.858Z,29.90
2023-02-14T23:45:35.303Z,28.58
2023-02-14T23:48:18.340Z,29.35
2023-02-14T23:50:50.147Z,28.50
2023-02-14T23:53:19.146Z,30.88
2023-02-14T23:55:52.143Z,30.40
2023-02-14T23:58:22.067Z,27.67
